sensor_id;sensor_type;location;lat;lon;timestamp;P1;durP1;ratioP1;P2;durP2;ratioP2
51901;SDS011;37929;53.218;6.548;2022-07-25T00:01:34;5.20;;;3.00;;
51901;SDS011;37929;53.218;6.548;2022-07-25T00:04:00;3.33;;;2.90;;
51901;SDS011;37929;53.218;6.548;2022-07-25T00:06:26;4.57;;;2.90;;
51901;SDS011;37929;53.218;6.548;2022-07-25T00:08:52;3.58;;;3.00;;
51901;SDS011;37929;53.218;6.548;2022-07-25T00:11:18;6.38;;;3.15;;
51901;SDS011;37929;53.218;6.548;2022-07-25T00:13:44;3.40;;;2.95;;
51901;SDS011;37929;53.218;6.548;2022-07-25T00:16:13;4.63;;;2.80;;
51901;SDS011;37929;53.218;6.548;2022-07-25T00:18:38;5.10;;;3.22;;
51901;SDS011;37929;53.218;6.548;2022-07-25T00:21:04;3.88;;;2.90;;
51901;SDS011;37929;53.218;6.548;2022-07-25T00:23:30;3.78;;;3.15;;
51901;SDS011;37929;53.218;6.548;2022-07-25T00:25:56;4.68;;;3.60;;
51901;SDS011;37929;53.218;6.548;2022-07-25T00:28:25;4.88;;;2.85;;
51901;SDS011;37929;53.218;6.548;2022-07-25T00:30:53;3.92;;;3.00;;
51901;SDS011;37929;53.218;6.548;2022-07-25T00:33:19;3.92;;;3.17;;
51901;SDS011;37929;53.218;6.548;2022-07-25T00:35:45;3.20;;;2.90;;
51901;SDS011;37929;53.218;6.548;2022-07-25T00:38:11;4.53;;;3.10;;
51901;SDS011;37929;53.218;6.548;2022-07-25T00:40:36;5.03;;;3.47;;
51901;SDS011;37929;53.218;6.548;2022-07-25T00:43:05;4.63;;;3.35;;
51901;SDS011;37929;53.218;6.548;2022-07-25T00:45:31;5.72;;;3.22;;
51901;SDS011;37929;53.218;6.548;2022-07-25T00:47:57;4.30;;;3.28;;
51901;SDS011;37929;53.218;6.548;2022-07-25T00:50:26;4.47;;;3.30;;
51901;SDS011;37929;53.218;6.548;2022-07-25T00:52:51;3.88;;;3.33;;
51901;SDS011;37929;53.218;6.548;2022-07-25T00:55:18;4.20;;;3.70;;
51901;SDS011;37929;53.218;6.548;2022-07-25T00:57:45;6.18;;;3.75;;
51901;SDS011;37929;53.218;6.548;2022-07-25T01:00:14;5.03;;;3.80;;
51901;SDS011;37929;53.218;6.548;2022-07-25T01:02:40;4.57;;;3.60;;
51901;SDS011;37929;53.218;6.548;2022-07-25T01:05:09;4.97;;;4.10;;
51901;SDS011;37929;53.218;6.548;2022-07-25T01:07:38;5.50;;;3.90;;
51901;SDS011;37929;53.218;6.548;2022-07-25T01:10:04;5.90;;;3.97;;
51901;SDS011;37929;53.218;6.548;2022-07-25T01:12:50;4.30;;;3.70;;
51901;SDS011;37929;53.218;6.548;2022-07-25T01:17:46;5.60;;;4.32;;
51901;SDS011;37929;53.218;6.548;2022-07-25T01:20:13;6.82;;;4.25;;
51901;SDS011;37929;53.218;6.548;2022-07-25T01:22:40;8.00;;;4.75;;
51901;SDS011;37929;53.218;6.548;2022-07-25T01:25:09;5.55;;;4.95;;
51901;SDS011;37929;53.218;6.548;2022-07-25T01:27:38;7.00;;;4.88;;
51901;SDS011;37929;53.218;6.548;2022-07-25T01:30:06;6.85;;;5.30;;
51901;SDS011;37929;53.218;6.548;2022-07-25T01:32:35;5.57;;;4.72;;
51901;SDS011;37929;53.218;6.548;2022-07-25T01:35:01;5.78;;;4.97;;
51901;SDS011;37929;53.218;6.548;2022-07-25T01:37:28;5.97;;;5.03;;
51901;SDS011;37929;53.218;6.548;2022-07-25T01:39:54;7.32;;;5.97;;
51901;SDS011;37929;53.218;6.548;2022-07-25T01:42:20;5.15;;;4.55;;
51901;SDS011;37929;53.218;6.548;2022-07-25T01:44:45;6.78;;;4.70;;
51901;SDS011;37929;53.218;6.548;2022-07-25T01:47:11;9.20;;;5.85;;
51901;SDS011;37929;53.218;6.548;2022-07-25T01:49:37;7.45;;;5.68;;
51901;SDS011;37929;53.218;6.548;2022-07-25T01:52:03;5.95;;;5.35;;
51901;SDS011;37929;53.218;6.548;2022-07-25T01:54:29;7.32;;;5.68;;
51901;SDS011;37929;53.218;6.548;2022-07-25T01:56:54;7.57;;;6.05;;
51901;SDS011;37929;53.218;6.548;2022-07-25T01:59:20;6.38;;;5.78;;
51901;SDS011;37929;53.218;6.548;2022-07-25T02:01:46;8.13;;;5.35;;
51901;SDS011;37929;53.218;6.548;2022-07-25T02:04:12;7.85;;;6.55;;
51901;SDS011;37929;53.218;6.548;2022-07-25T02:06:37;6.65;;;5.95;;
51901;SDS011;37929;53.218;6.548;2022-07-25T02:09:06;8.90;;;6.32;;
51901;SDS011;37929;53.218;6.548;2022-07-25T02:11:35;7.40;;;6.00;;
51901;SDS011;37929;53.218;6.548;2022-07-25T02:14:00;6.70;;;5.45;;
51901;SDS011;37929;53.218;6.548;2022-07-25T02:16:27;9.60;;;5.30;;
51901;SDS011;37929;53.218;6.548;2022-07-25T02:18:53;7.53;;;5.40;;
51901;SDS011;37929;53.218;6.548;2022-07-25T02:21:19;6.28;;;5.43;;
51901;SDS011;37929;53.218;6.548;2022-07-25T02:23:45;6.35;;;5.47;;
51901;SDS011;37929;53.218;6.548;2022-07-25T02:26:11;7.32;;;5.88;;
51901;SDS011;37929;53.218;6.548;2022-07-25T02:28:38;6.57;;;5.50;;
51901;SDS011;37929;53.218;6.548;2022-07-25T02:31:04;6.70;;;5.32;;
51901;SDS011;37929;53.218;6.548;2022-07-25T02:33:30;7.88;;;6.30;;
51901;SDS011;37929;53.218;6.548;2022-07-25T02:35:55;7.60;;;6.60;;
51901;SDS011;37929;53.218;6.548;2022-07-25T02:38:21;7.93;;;6.03;;
51901;SDS011;37929;53.218;6.548;2022-07-25T02:40:53;6.72;;;5.75;;
51901;SDS011;37929;53.218;6.548;2022-07-25T02:43:19;7.75;;;5.88;;
51901;SDS011;37929;53.218;6.548;2022-07-25T02:45:51;8.95;;;6.38;;
51901;SDS011;37929;53.218;6.548;2022-07-25T02:48:17;8.43;;;6.13;;
51901;SDS011;37929;53.218;6.548;2022-07-25T02:50:43;6.45;;;5.82;;
51901;SDS011;37929;53.218;6.548;2022-07-25T02:53:09;9.48;;;6.70;;
51901;SDS011;37929;53.218;6.548;2022-07-25T02:55:35;9.07;;;6.13;;
51901;SDS011;37929;53.218;6.548;2022-07-25T02:58:04;8.18;;;6.47;;
51901;SDS011;37929;53.218;6.548;2022-07-25T03:00:30;8.40;;;6.40;;
51901;SDS011;37929;53.218;6.548;2022-07-25T03:02:56;6.97;;;6.20;;
51901;SDS011;37929;53.218;6.548;2022-07-25T03:05:22;6.85;;;6.15;;
51901;SDS011;37929;53.218;6.548;2022-07-25T03:07:48;9.13;;;6.53;;
51901;SDS011;37929;53.218;6.548;2022-07-25T03:10:14;7.13;;;5.97;;
51901;SDS011;37929;53.218;6.548;2022-07-25T03:12:40;6.75;;;5.60;;
51901;SDS011;37929;53.218;6.548;2022-07-25T03:15:07;8.27;;;5.90;;
51901;SDS011;37929;53.218;6.548;2022-07-25T03:17:34;11.18;;;6.70;;
51901;SDS011;37929;53.218;6.548;2022-07-25T03:20:00;6.65;;;5.85;;
51901;SDS011;37929;53.218;6.548;2022-07-25T03:22:26;7.50;;;5.95;;
51901;SDS011;37929;53.218;6.548;2022-07-25T03:24:52;9.40;;;6.63;;
51901;SDS011;37929;53.218;6.548;2022-07-25T03:27:18;8.55;;;6.28;;
51901;SDS011;37929;53.218;6.548;2022-07-25T03:29:44;7.25;;;5.80;;
51901;SDS011;37929;53.218;6.548;2022-07-25T03:32:10;6.80;;;6.10;;
51901;SDS011;37929;53.218;6.548;2022-07-25T03:34:36;7.03;;;5.80;;
51901;SDS011;37929;53.218;6.548;2022-07-25T03:37:02;8.65;;;7.35;;
51901;SDS011;37929;53.218;6.548;2022-07-25T03:39:28;7.88;;;7.07;;
51901;SDS011;37929;53.218;6.548;2022-07-25T03:41:55;9.98;;;6.97;;
51901;SDS011;37929;53.218;6.548;2022-07-25T03:44:21;11.05;;;7.85;;
51901;SDS011;37929;53.218;6.548;2022-07-25T03:46:48;10.43;;;7.80;;
51901;SDS011;37929;53.218;6.548;2022-07-25T03:49:14;10.45;;;7.30;;
51901;SDS011;37929;53.218;6.548;2022-07-25T03:51:40;9.68;;;7.60;;
51901;SDS011;37929;53.218;6.548;2022-07-25T03:54:06;8.95;;;7.80;;
51901;SDS011;37929;53.218;6.548;2022-07-25T03:56:41;10.63;;;8.20;;
51901;SDS011;37929;53.218;6.548;2022-07-25T03:59:14;9.70;;;8.55;;
51901;SDS011;37929;53.218;6.548;2022-07-25T04:01:43;9.75;;;8.75;;
51901;SDS011;37929;53.218;6.548;2022-07-25T04:04:11;10.27;;;8.48;;
51901;SDS011;37929;53.218;6.548;2022-07-25T04:06:38;10.10;;;8.75;;
51901;SDS011;37929;53.218;6.548;2022-07-25T04:09:05;9.43;;;8.43;;
51901;SDS011;37929;53.218;6.548;2022-07-25T04:11:32;10.38;;;8.55;;
51901;SDS011;37929;53.218;6.548;2022-07-25T04:14:00;14.60;;;9.75;;
51901;SDS011;37929;53.218;6.548;2022-07-25T04:16:26;10.90;;;9.80;;
51901;SDS011;37929;53.218;6.548;2022-07-25T04:19:07;9.63;;;8.63;;
51901;SDS011;37929;53.218;6.548;2022-07-25T04:21:46;12.40;;;8.88;;
51901;SDS011;37929;53.218;6.548;2022-07-25T04:24:15;12.18;;;9.73;;
51901;SDS011;37929;53.218;6.548;2022-07-25T04:26:41;11.40;;;9.93;;
51901;SDS011;37929;53.218;6.548;2022-07-25T04:29:20;9.82;;;8.82;;
51901;SDS011;37929;53.218;6.548;2022-07-25T04:31:51;10.27;;;9.13;;
51901;SDS011;37929;53.218;6.548;2022-07-25T04:34:20;10.75;;;9.35;;
51901;SDS011;37929;53.218;6.548;2022-07-25T04:36:46;10.60;;;8.68;;
51901;SDS011;37929;53.218;6.548;2022-07-25T04:39:12;10.75;;;8.75;;
51901;SDS011;37929;53.218;6.548;2022-07-25T04:41:38;10.27;;;9.05;;
51901;SDS011;37929;53.218;6.548;2022-07-25T04:44:03;11.07;;;9.70;;
51901;SDS011;37929;53.218;6.548;2022-07-25T04:46:31;12.68;;;9.98;;
51901;SDS011;37929;53.218;6.548;2022-07-25T04:48:57;10.88;;;9.52;;
51901;SDS011;37929;53.218;6.548;2022-07-25T04:51:22;11.93;;;9.80;;
51901;SDS011;37929;53.218;6.548;2022-07-25T04:53:48;10.98;;;9.85;;
51901;SDS011;37929;53.218;6.548;2022-07-25T04:56:14;11.15;;;9.60;;
51901;SDS011;37929;53.218;6.548;2022-07-25T04:58:39;13.10;;;10.48;;
51901;SDS011;37929;53.218;6.548;2022-07-25T05:01:05;12.80;;;9.90;;
51901;SDS011;37929;53.218;6.548;2022-07-25T05:03:32;11.55;;;9.82;;
51901;SDS011;37929;53.218;6.548;2022-07-25T05:05:57;11.90;;;9.68;;
51901;SDS011;37929;53.218;6.548;2022-07-25T05:08:23;12.23;;;10.05;;
51901;SDS011;37929;53.218;6.548;2022-07-25T05:10:49;13.70;;;11.00;;
51901;SDS011;37929;53.218;6.548;2022-07-25T05:13:15;11.23;;;10.13;;
51901;SDS011;37929;53.218;6.548;2022-07-25T05:15:41;11.57;;;10.38;;
51901;SDS011;37929;53.218;6.548;2022-07-25T05:18:06;13.52;;;10.35;;
51901;SDS011;37929;53.218;6.548;2022-07-25T05:20:32;13.60;;;11.10;;
51901;SDS011;37929;53.218;6.548;2022-07-25T05:22:58;12.45;;;10.45;;
51901;SDS011;37929;53.218;6.548;2022-07-25T05:25:24;13.27;;;11.57;;
51901;SDS011;37929;53.218;6.548;2022-07-25T05:27:50;12.70;;;11.13;;
51901;SDS011;37929;53.218;6.548;2022-07-25T05:30:18;13.32;;;11.20;;
51901;SDS011;37929;53.218;6.548;2022-07-25T05:32:44;12.82;;;11.10;;
51901;SDS011;37929;53.218;6.548;2022-07-25T05:35:10;12.45;;;11.20;;
51901;SDS011;37929;53.218;6.548;2022-07-25T05:37:36;14.43;;;11.30;;
51901;SDS011;37929;53.218;6.548;2022-07-25T05:40:03;13.13;;;11.60;;
51901;SDS011;37929;53.218;6.548;2022-07-25T05:42:30;13.15;;;11.68;;
51901;SDS011;37929;53.218;6.548;2022-07-25T05:44:55;15.00;;;11.95;;
51901;SDS011;37929;53.218;6.548;2022-07-25T05:47:21;13.18;;;11.80;;
51901;SDS011;37929;53.218;6.548;2022-07-25T05:49:47;15.10;;;13.02;;
51901;SDS011;37929;53.218;6.548;2022-07-25T05:52:13;13.45;;;12.05;;
51901;SDS011;37929;53.218;6.548;2022-07-25T05:54:39;14.93;;;12.63;;
51901;SDS011;37929;53.218;6.548;2022-07-25T05:57:05;14.43;;;12.90;;
51901;SDS011;37929;53.218;6.548;2022-07-25T05:59:31;14.63;;;12.73;;
51901;SDS011;37929;53.218;6.548;2022-07-25T06:01:56;14.57;;;13.02;;
51901;SDS011;37929;53.218;6.548;2022-07-25T06:04:22;13.73;;;12.35;;
51901;SDS011;37929;53.218;6.548;2022-07-25T06:06:48;15.80;;;12.60;;
51901;SDS011;37929;53.218;6.548;2022-07-25T06:09:17;15.15;;;12.40;;
51901;SDS011;37929;53.218;6.548;2022-07-25T06:11:44;15.43;;;13.07;;
51901;SDS011;37929;53.218;6.548;2022-07-25T06:14:10;14.77;;;13.13;;
51901;SDS011;37929;53.218;6.548;2022-07-25T06:16:39;16.13;;;13.63;;
51901;SDS011;37929;53.218;6.548;2022-07-25T06:19:05;16.55;;;12.57;;
51901;SDS011;37929;53.218;6.548;2022-07-25T06:21:30;14.05;;;12.57;;
51901;SDS011;37929;53.218;6.548;2022-07-25T06:23:56;14.10;;;12.70;;
51901;SDS011;37929;53.218;6.548;2022-07-25T06:26:23;14.30;;;12.90;;
51901;SDS011;37929;53.218;6.548;2022-07-25T06:28:49;14.00;;;12.30;;
51901;SDS011;37929;53.218;6.548;2022-07-25T06:31:18;15.43;;;13.48;;
51901;SDS011;37929;53.218;6.548;2022-07-25T06:33:43;13.48;;;11.60;;
51901;SDS011;37929;53.218;6.548;2022-07-25T06:36:09;13.23;;;11.88;;
51901;SDS011;37929;53.218;6.548;2022-07-25T06:38:35;14.15;;;12.68;;
51901;SDS011;37929;53.218;6.548;2022-07-25T06:41:01;15.85;;;12.45;;
51901;SDS011;37929;53.218;6.548;2022-07-25T06:43:27;13.70;;;12.13;;
51901;SDS011;37929;53.218;6.548;2022-07-25T06:45:52;15.43;;;12.27;;
51901;SDS011;37929;53.218;6.548;2022-07-25T06:48:18;15.25;;;12.93;;
51901;SDS011;37929;53.218;6.548;2022-07-25T06:50:44;13.50;;;11.70;;
51901;SDS011;37929;53.218;6.548;2022-07-25T06:53:10;13.27;;;11.98;;
51901;SDS011;37929;53.218;6.548;2022-07-25T06:55:36;18.65;;;11.57;;
51901;SDS011;37929;53.218;6.548;2022-07-25T06:58:02;13.43;;;12.13;;
51901;SDS011;37929;53.218;6.548;2022-07-25T07:00:28;13.35;;;11.15;;
51901;SDS011;37929;53.218;6.548;2022-07-25T07:03:00;14.65;;;11.30;;
51901;SDS011;37929;53.218;6.548;2022-07-25T07:05:32;12.77;;;10.90;;
51901;SDS011;37929;53.218;6.548;2022-07-25T07:08:00;13.63;;;11.65;;
51901;SDS011;37929;53.218;6.548;2022-07-25T07:10:26;17.67;;;11.38;;
51901;SDS011;37929;53.218;6.548;2022-07-25T07:13:05;12.43;;;11.13;;
51901;SDS011;37929;53.218;6.548;2022-07-25T07:15:33;14.30;;;11.18;;
51901;SDS011;37929;53.218;6.548;2022-07-25T07:18:00;15.05;;;11.63;;
51901;SDS011;37929;53.218;6.548;2022-07-25T07:20:26;13.48;;;11.52;;
51901;SDS011;37929;53.218;6.548;2022-07-25T07:22:52;13.13;;;11.52;;
51901;SDS011;37929;53.218;6.548;2022-07-25T07:25:18;13.85;;;11.13;;
51901;SDS011;37929;53.218;6.548;2022-07-25T07:27:45;14.10;;;11.68;;
51901;SDS011;37929;53.218;6.548;2022-07-25T07:30:11;14.98;;;11.98;;
51901;SDS011;37929;53.218;6.548;2022-07-25T07:32:41;13.55;;;11.82;;
51901;SDS011;37929;53.218;6.548;2022-07-25T07:35:07;15.65;;;12.13;;
51901;SDS011;37929;53.218;6.548;2022-07-25T07:37:33;13.00;;;11.63;;
51901;SDS011;37929;53.218;6.548;2022-07-25T07:39:59;14.93;;;11.65;;
51901;SDS011;37929;53.218;6.548;2022-07-25T07:42:25;14.65;;;11.93;;
51901;SDS011;37929;53.218;6.548;2022-07-25T07:44:50;13.13;;;11.52;;
51901;SDS011;37929;53.218;6.548;2022-07-25T07:47:16;12.93;;;11.38;;
51901;SDS011;37929;53.218;6.548;2022-07-25T07:49:42;11.70;;;10.50;;
51901;SDS011;37929;53.218;6.548;2022-07-25T07:52:08;11.63;;;10.10;;
51901;SDS011;37929;53.218;6.548;2022-07-25T07:54:34;10.43;;;9.32;;
51901;SDS011;37929;53.218;6.548;2022-07-25T07:57:18;11.30;;;9.88;;
51901;SDS011;37929;53.218;6.548;2022-07-25T07:59:43;11.27;;;9.70;;
51901;SDS011;37929;53.218;6.548;2022-07-25T08:02:09;13.27;;;8.93;;
51901;SDS011;37929;53.218;6.548;2022-07-25T08:04:35;13.93;;;9.50;;
51901;SDS011;37929;53.218;6.548;2022-07-25T08:07:01;10.85;;;9.05;;
51901;SDS011;37929;53.218;6.548;2022-07-25T08:09:27;9.73;;;8.82;;
51901;SDS011;37929;53.218;6.548;2022-07-25T08:11:55;10.43;;;8.82;;
51901;SDS011;37929;53.218;6.548;2022-07-25T08:14:20;9.82;;;8.82;;
51901;SDS011;37929;53.218;6.548;2022-07-25T08:16:46;11.45;;;8.35;;
51901;SDS011;37929;53.218;6.548;2022-07-25T08:19:12;9.88;;;8.20;;
51901;SDS011;37929;53.218;6.548;2022-07-25T08:21:38;11.68;;;8.23;;
51901;SDS011;37929;53.218;6.548;2022-07-25T08:24:03;10.45;;;7.43;;
51901;SDS011;37929;53.218;6.548;2022-07-25T08:26:30;9.93;;;8.70;;
51901;SDS011;37929;53.218;6.548;2022-07-25T08:29:00;8.52;;;7.38;;
51901;SDS011;37929;53.218;6.548;2022-07-25T08:31:26;9.40;;;8.15;;
51901;SDS011;37929;53.218;6.548;2022-07-25T08:33:55;10.88;;;8.57;;
51901;SDS011;37929;53.218;6.548;2022-07-25T08:36:24;9.05;;;7.43;;
51901;SDS011;37929;53.218;6.548;2022-07-25T08:38:49;8.60;;;7.47;;
51901;SDS011;37929;53.218;6.548;2022-07-25T08:41:18;12.30;;;8.00;;
51901;SDS011;37929;53.218;6.548;2022-07-25T08:43:47;8.45;;;7.05;;
51901;SDS011;37929;53.218;6.548;2022-07-25T08:46:16;11.25;;;7.85;;
51901;SDS011;37929;53.218;6.548;2022-07-25T08:48:42;10.65;;;8.40;;
51901;SDS011;37929;53.218;6.548;2022-07-25T08:51:12;11.35;;;8.00;;
51901;SDS011;37929;53.218;6.548;2022-07-25T08:53:41;14.05;;;8.55;;
51901;SDS011;37929;53.218;6.548;2022-07-25T08:56:08;13.23;;;7.82;;
51901;SDS011;37929;53.218;6.548;2022-07-25T08:58:34;11.73;;;7.40;;
51901;SDS011;37929;53.218;6.548;2022-07-25T09:01:00;8.35;;;6.55;;
51901;SDS011;37929;53.218;6.548;2022-07-25T09:03:26;6.03;;;5.40;;
51901;SDS011;37929;53.218;6.548;2022-07-25T09:05:52;24.52;;;6.35;;
51901;SDS011;37929;53.218;6.548;2022-07-25T09:08:20;9.38;;;5.05;;
51901;SDS011;37929;53.218;6.548;2022-07-25T09:10:51;9.20;;;4.80;;
51901;SDS011;37929;53.218;6.548;2022-07-25T09:13:19;4.55;;;3.53;;
51901;SDS011;37929;53.218;6.548;2022-07-25T09:15:51;4.43;;;3.33;;
51901;SDS011;37929;53.218;6.548;2022-07-25T09:18:25;5.55;;;3.65;;
51901;SDS011;37929;53.218;6.548;2022-07-25T09:20:52;6.13;;;3.50;;
51901;SDS011;37929;53.218;6.548;2022-07-25T09:26:06;5.20;;;3.58;;
51901;SDS011;37929;53.218;6.548;2022-07-25T09:28:44;5.10;;;3.30;;
51901;SDS011;37929;53.218;6.548;2022-07-25T09:31:16;6.05;;;3.03;;
51901;SDS011;37929;53.218;6.548;2022-07-25T09:33:52;4.57;;;2.90;;
51901;SDS011;37929;53.218;6.548;2022-07-25T09:36:24;5.25;;;2.88;;
51901;SDS011;37929;53.218;6.548;2022-07-25T09:38:53;4.15;;;2.60;;
51901;SDS011;37929;53.218;6.548;2022-07-25T09:41:34;5.88;;;3.08;;
51901;SDS011;37929;53.218;6.548;2022-07-25T09:44:01;6.05;;;2.90;;
51901;SDS011;37929;53.218;6.548;2022-07-25T09:46:29;4.60;;;2.80;;
51901;SDS011;37929;53.218;6.548;2022-07-25T09:49:05;6.05;;;2.55;;
51901;SDS011;37929;53.218;6.548;2022-07-25T09:51:42;4.60;;;3.42;;
51901;SDS011;37929;53.218;6.548;2022-07-25T09:54:08;4.18;;;2.50;;
51901;SDS011;37929;53.218;6.548;2022-07-25T09:56:34;6.10;;;2.67;;
51901;SDS011;37929;53.218;6.548;2022-07-25T09:59:01;4.70;;;2.45;;
51901;SDS011;37929;53.218;6.548;2022-07-25T10:01:34;3.72;;;2.10;;
51901;SDS011;37929;53.218;6.548;2022-07-25T10:18:13;6.35;;;2.60;;
51901;SDS011;37929;53.218;6.548;2022-07-25T10:20:41;5.10;;;2.45;;
51901;SDS011;37929;53.218;6.548;2022-07-25T10:28:45;6.80;;;2.90;;
51901;SDS011;37929;53.218;6.548;2022-07-25T10:33:50;5.28;;;2.58;;
51901;SDS011;37929;53.218;6.548;2022-07-25T10:36:20;4.68;;;2.42;;
51901;SDS011;37929;53.218;6.548;2022-07-25T10:38:51;5.03;;;2.50;;
51901;SDS011;37929;53.218;6.548;2022-07-25T10:41:23;5.65;;;2.70;;
51901;SDS011;37929;53.218;6.548;2022-07-25T10:43:50;9.50;;;3.20;;
51901;SDS011;37929;53.218;6.548;2022-07-25T10:46:19;5.30;;;3.42;;
51901;SDS011;37929;53.218;6.548;2022-07-25T10:48:58;6.43;;;3.42;;
51901;SDS011;37929;53.218;6.548;2022-07-25T10:51:28;7.30;;;3.50;;
51901;SDS011;37929;53.218;6.548;2022-07-25T10:53:56;6.28;;;3.60;;
51901;SDS011;37929;53.218;6.548;2022-07-25T10:56:24;7.25;;;3.75;;
51901;SDS011;37929;53.218;6.548;2022-07-25T10:58:55;5.45;;;4.15;;
51901;SDS011;37929;53.218;6.548;2022-07-25T11:01:30;6.22;;;3.58;;
51901;SDS011;37929;53.218;6.548;2022-07-25T11:04:13;4.90;;;2.97;;
51901;SDS011;37929;53.218;6.548;2022-07-25T11:06:42;7.15;;;2.97;;
51901;SDS011;37929;53.218;6.548;2022-07-25T11:09:12;7.40;;;3.10;;
51901;SDS011;37929;53.218;6.548;2022-07-25T11:11:48;7.57;;;3.00;;
51901;SDS011;37929;53.218;6.548;2022-07-25T11:14:16;6.15;;;3.03;;
51901;SDS011;37929;53.218;6.548;2022-07-25T11:16:47;6.18;;;2.50;;
51901;SDS011;37929;53.218;6.548;2022-07-25T11:21:52;9.77;;;3.33;;
51901;SDS011;37929;53.218;6.548;2022-07-25T11:24:38;6.65;;;3.10;;
51901;SDS011;37929;53.218;6.548;2022-07-25T11:27:10;7.47;;;3.15;;
51901;SDS011;37929;53.218;6.548;2022-07-25T11:29:39;8.82;;;3.28;;
51901;SDS011;37929;53.218;6.548;2022-07-25T11:32:09;6.75;;;2.80;;
51901;SDS011;37929;53.218;6.548;2022-07-25T11:34:44;6.05;;;2.97;;
51901;SDS011;37929;53.218;6.548;2022-07-25T11:37:18;5.78;;;2.90;;
51901;SDS011;37929;53.218;6.548;2022-07-25T11:39:48;6.10;;;2.85;;
51901;SDS011;37929;53.218;6.548;2022-07-25T11:42:17;9.20;;;3.38;;
51901;SDS011;37929;53.218;6.548;2022-07-25T11:44:50;7.40;;;2.90;;
51901;SDS011;37929;53.218;6.548;2022-07-25T11:47:29;8.13;;;3.28;;
51901;SDS011;37929;53.218;6.548;2022-07-25T11:50:12;7.05;;;3.20;;
51901;SDS011;37929;53.218;6.548;2022-07-25T11:52:56;7.68;;;2.60;;
51901;SDS011;37929;53.218;6.548;2022-07-25T11:55:28;9.10;;;3.20;;
51901;SDS011;37929;53.218;6.548;2022-07-25T11:58:01;10.63;;;3.50;;
51901;SDS011;37929;53.218;6.548;2022-07-25T12:00:29;9.35;;;3.65;;
51901;SDS011;37929;53.218;6.548;2022-07-25T12:03:09;8.48;;;3.45;;
51901;SDS011;37929;53.218;6.548;2022-07-25T12:05:41;7.00;;;2.75;;
51901;SDS011;37929;53.218;6.548;2022-07-25T12:08:09;10.65;;;2.90;;
51901;SDS011;37929;53.218;6.548;2022-07-25T12:10:45;8.85;;;2.90;;
51901;SDS011;37929;53.218;6.548;2022-07-25T12:13:22;6.00;;;2.75;;
51901;SDS011;37929;53.218;6.548;2022-07-25T12:15:58;6.75;;;2.53;;
51901;SDS011;37929;53.218;6.548;2022-07-25T12:18:27;6.00;;;2.85;;
51901;SDS011;37929;53.218;6.548;2022-07-25T12:20:58;7.97;;;2.50;;
51901;SDS011;37929;53.218;6.548;2022-07-25T12:23:34;7.68;;;2.78;;
51901;SDS011;37929;53.218;6.548;2022-07-25T12:25:59;7.25;;;2.60;;
51901;SDS011;37929;53.218;6.548;2022-07-25T12:28:25;5.28;;;2.58;;
51901;SDS011;37929;53.218;6.548;2022-07-25T12:30:55;6.45;;;2.50;;
51901;SDS011;37929;53.218;6.548;2022-07-25T12:33:21;5.97;;;2.58;;
51901;SDS011;37929;53.218;6.548;2022-07-25T12:35:46;7.93;;;2.22;;
51901;SDS011;37929;53.218;6.548;2022-07-25T12:38:12;7.43;;;2.50;;
51901;SDS011;37929;53.218;6.548;2022-07-25T12:40:41;7.15;;;2.00;;
51901;SDS011;37929;53.218;6.548;2022-07-25T12:43:07;5.22;;;2.00;;
51901;SDS011;37929;53.218;6.548;2022-07-25T12:45:36;7.07;;;2.05;;
51901;SDS011;37929;53.218;6.548;2022-07-25T12:48:01;6.53;;;2.10;;
51901;SDS011;37929;53.218;6.548;2022-07-25T12:50:27;4.90;;;2.28;;
51901;SDS011;37929;53.218;6.548;2022-07-25T12:52:53;8.07;;;2.40;;
51901;SDS011;37929;53.218;6.548;2022-07-25T12:55:20;8.13;;;2.35;;
51901;SDS011;37929;53.218;6.548;2022-07-25T12:57:46;5.07;;;2.40;;
51901;SDS011;37929;53.218;6.548;2022-07-25T13:00:13;5.07;;;2.30;;
51901;SDS011;37929;53.218;6.548;2022-07-25T13:02:40;6.15;;;2.20;;
51901;SDS011;37929;53.218;6.548;2022-07-25T13:05:06;5.60;;;2.65;;
51901;SDS011;37929;53.218;6.548;2022-07-25T13:07:37;5.72;;;2.58;;
51901;SDS011;37929;53.218;6.548;2022-07-25T13:10:35;6.10;;;2.47;;
51901;SDS011;37929;53.218;6.548;2022-07-25T13:13:04;6.05;;;2.53;;
51901;SDS011;37929;53.218;6.548;2022-07-25T13:15:36;5.47;;;2.33;;
51901;SDS011;37929;53.218;6.548;2022-07-25T13:18:02;6.00;;;2.45;;
51901;SDS011;37929;53.218;6.548;2022-07-25T13:20:28;5.30;;;2.50;;
51901;SDS011;37929;53.218;6.548;2022-07-25T13:22:58;6.82;;;2.30;;
51901;SDS011;37929;53.218;6.548;2022-07-25T13:25:24;7.53;;;2.55;;
51901;SDS011;37929;53.218;6.548;2022-07-25T13:27:52;8.38;;;2.72;;
51901;SDS011;37929;53.218;6.548;2022-07-25T13:30:24;5.68;;;2.47;;
51901;SDS011;37929;53.218;6.548;2022-07-25T13:32:49;6.63;;;2.50;;
51901;SDS011;37929;53.218;6.548;2022-07-25T13:35:25;7.55;;;2.80;;
51901;SDS011;37929;53.218;6.548;2022-07-25T13:37:51;8.35;;;2.50;;
51901;SDS011;37929;53.218;6.548;2022-07-25T13:40:33;7.10;;;2.40;;
51901;SDS011;37929;53.218;6.548;2022-07-25T13:43:09;7.22;;;2.70;;
51901;SDS011;37929;53.218;6.548;2022-07-25T13:45:37;5.20;;;2.40;;
51901;SDS011;37929;53.218;6.548;2022-07-25T13:48:03;8.27;;;2.83;;
51901;SDS011;37929;53.218;6.548;2022-07-25T13:50:30;8.40;;;2.80;;
51901;SDS011;37929;53.218;6.548;2022-07-25T13:52:56;7.82;;;2.60;;
51901;SDS011;37929;53.218;6.548;2022-07-25T13:55:26;9.25;;;2.70;;
51901;SDS011;37929;53.218;6.548;2022-07-25T13:57:52;9.70;;;3.38;;
51901;SDS011;37929;53.218;6.548;2022-07-25T14:00:18;6.57;;;2.53;;
51901;SDS011;37929;53.218;6.548;2022-07-25T14:02:46;8.48;;;2.97;;
51901;SDS011;37929;53.218;6.548;2022-07-25T14:05:18;7.68;;;3.03;;
51901;SDS011;37929;53.218;6.548;2022-07-25T14:07:44;9.48;;;2.90;;
51901;SDS011;37929;53.218;6.548;2022-07-25T14:10:13;6.60;;;2.95;;
51901;SDS011;37929;53.218;6.548;2022-07-25T14:12:41;10.85;;;3.50;;
51901;SDS011;37929;53.218;6.548;2022-07-25T14:15:12;7.65;;;3.88;;
51901;SDS011;37929;53.218;6.548;2022-07-25T14:17:40;7.88;;;2.90;;
51901;SDS011;37929;53.218;6.548;2022-07-25T14:20:16;7.78;;;2.80;;
51901;SDS011;37929;53.218;6.548;2022-07-25T14:22:42;10.02;;;2.50;;
51901;SDS011;37929;53.218;6.548;2022-07-25T14:25:09;8.05;;;2.60;;
51901;SDS011;37929;53.218;6.548;2022-07-25T14:27:35;13.00;;;3.50;;
51901;SDS011;37929;53.218;6.548;2022-07-25T14:30:07;6.72;;;2.53;;
51901;SDS011;37929;53.218;6.548;2022-07-25T14:32:41;8.07;;;2.88;;
51901;SDS011;37929;53.218;6.548;2022-07-25T14:35:07;5.78;;;2.60;;
51901;SDS011;37929;53.218;6.548;2022-07-25T14:37:40;7.93;;;2.65;;
51901;SDS011;37929;53.218;6.548;2022-07-25T14:40:06;7.07;;;2.90;;
51901;SDS011;37929;53.218;6.548;2022-07-25T14:42:37;10.20;;;2.85;;
51901;SDS011;37929;53.218;6.548;2022-07-25T14:45:07;7.85;;;3.08;;
51901;SDS011;37929;53.218;6.548;2022-07-25T14:50:48;7.18;;;2.83;;
51901;SDS011;37929;53.218;6.548;2022-07-25T14:53:14;8.35;;;3.10;;
51901;SDS011;37929;53.218;6.548;2022-07-25T14:58:14;5.35;;;2.40;;
51901;SDS011;37929;53.218;6.548;2022-07-25T15:00:39;8.60;;;2.92;;
51901;SDS011;37929;53.218;6.548;2022-07-25T15:03:07;9.63;;;3.08;;
51901;SDS011;37929;53.218;6.548;2022-07-25T15:05:33;7.38;;;2.90;;
51901;SDS011;37929;53.218;6.548;2022-07-25T15:08:00;6.28;;;2.70;;
51901;SDS011;37929;53.218;6.548;2022-07-25T15:10:28;7.57;;;2.85;;
51901;SDS011;37929;53.218;6.548;2022-07-25T15:13:05;6.45;;;2.97;;
51901;SDS011;37929;53.218;6.548;2022-07-25T15:15:36;8.85;;;2.83;;
51901;SDS011;37929;53.218;6.548;2022-07-25T15:18:02;6.28;;;2.92;;
51901;SDS011;37929;53.218;6.548;2022-07-25T15:20:28;6.90;;;3.15;;
51901;SDS011;37929;53.218;6.548;2022-07-25T15:22:54;9.07;;;3.13;;